sensor_id;sensor_type;location;lat;lon;timestamp;P1;durP1;ratioP1;P2;durP2;ratioP2
39218;SDS011;24934;52.752;6.964;2023-02-13T00:01:13;27.33;;;18.07;;
39218;SDS011;24934;52.752;6.964;2023-02-13T00:03:39;24.57;;;18.53;;
39218;SDS011;24934;52.752;6.964;2023-02-13T00:06:05;25.13;;;17.67;;
39218;SDS011;24934;52.752;6.964;2023-02-13T00:08:31;23.13;;;18.00;;
39218;SDS011;24934;52.752;6.964;2023-02-13T00:10:56;25.57;;;18.13;;
39218;SDS011;24934;52.752;6.964;2023-02-13T00:13:22;24.60;;;19.10;;
39218;SDS011;24934;52.752;6.964;2023-02-13T00:15:55;28.87;;;19.37;;
39218;SDS011;24934;52.752;6.964;2023-02-13T00:18:21;23.67;;;18.43;;
39218;SDS011;24934;52.752;6.964;2023-02-13T00:20:55;24.37;;;18.63;;
39218;SDS011;24934;52.752;6.964;2023-02-13T00:23:24;25.17;;;18.87;;
39218;SDS011;24934;52.752;6.964;2023-02-13T00:25:49;25.10;;;18.77;;
39218;SDS011;24934;52.752;6.964;2023-02-13T00:28:15;26.07;;;18.63;;
39218;SDS011;24934;52.752;6.964;2023-02-13T00:30:41;27.87;;;19.70;;
39218;SDS011;24934;52.752;6.964;2023-02-13T00:33:06;25.63;;;18.63;;
39218;SDS011;24934;52.752;6.964;2023-02-13T00:35:32;24.50;;;18.63;;
39218;SDS011;24934;52.752;6.964;2023-02-13T00:37:57;26.40;;;19.53;;
39218;SDS011;24934;52.752;6.964;2023-02-13T00:40:25;24.87;;;18.77;;
39218;SDS011;24934;52.752;6.964;2023-02-13T00:42:51;24.43;;;18.73;;
39218;SDS011;24934;52.752;6.964;2023-02-13T00:45:16;28.77;;;19.13;;
39218;SDS011;24934;52.752;6.964;2023-02-13T00:47:42;27.83;;;20.00;;
39218;SDS011;24934;52.752;6.964;2023-02-13T00:50:08;24.40;;;18.73;;
39218;SDS011;24934;52.752;6.964;2023-02-13T00:52:33;29.50;;;19.70;;
39218;SDS011;24934;52.752;6.964;2023-02-13T00:54:59;26.77;;;19.67;;
39218;SDS011;24934;52.752;6.964;2023-02-13T00:57:25;30.53;;;19.40;;
39218;SDS011;24934;52.752;6.964;2023-02-13T00:59:50;26.40;;;19.17;;
39218;SDS011;24934;52.752;6.964;2023-02-13T01:02:16;29.33;;;19.90;;
39218;SDS011;24934;52.752;6.964;2023-02-13T01:04:42;26.77;;;19.97;;
39218;SDS011;24934;52.752;6.964;2023-02-13T01:07:07;26.87;;;20.03;;
39218;SDS011;24934;52.752;6.964;2023-02-13T01:09:33;27.97;;;19.47;;
39218;SDS011;24934;52.752;6.964;2023-02-13T01:11:59;25.97;;;19.67;;
39218;SDS011;24934;52.752;6.964;2023-02-13T01:14:24;26.00;;;20.33;;
39218;SDS011;24934;52.752;6.964;2023-02-13T01:16:50;32.40;;;19.97;;
39218;SDS011;24934;52.752;6.964;2023-02-13T01:19:16;30.17;;;21.03;;
39218;SDS011;24934;52.752;6.964;2023-02-13T01:21:41;28.60;;;19.83;;
39218;SDS011;24934;52.752;6.964;2023-02-13T01:24:07;27.40;;;20.07;;
39218;SDS011;24934;52.752;6.964;2023-02-13T01:26:33;27.87;;;20.00;;
39218;SDS011;24934;52.752;6.964;2023-02-13T01:28:58;29.50;;;20.10;;
39218;SDS011;24934;52.752;6.964;2023-02-13T01:31:24;28.70;;;20.73;;
39218;SDS011;24934;52.752;6.964;2023-02-13T01:33:50;27.33;;;20.40;;
39218;SDS011;24934;52.752;6.964;2023-02-13T01:36:16;31.37;;;21.03;;
39218;SDS011;24934;52.752;6.964;2023-02-13T01:38:42;29.40;;;20.70;;
39218;SDS011;24934;52.752;6.964;2023-02-13T01:41:08;31.07;;;20.73;;
39218;SDS011;24934;52.752;6.964;2023-02-13T01:43:53;28.80;;;21.33;;
39218;SDS011;24934;52.752;6.964;2023-02-13T01:48:49;28.97;;;20.87;;
39218;SDS011;24934;52.752;6.964;2023-02-13T01:51:22;29.27;;;20.33;;
39218;SDS011;24934;52.752;6.964;2023-02-13T01:53:55;30.50;;;21.70;;
39218;SDS011;24934;52.752;6.964;2023-02-13T01:56:30;27.13;;;20.03;;
39218;SDS011;24934;52.752;6.964;2023-02-13T01:59:00;30.13;;;20.67;;
39218;SDS011;24934;52.752;6.964;2023-02-13T02:01:29;32.60;;;21.10;;
39218;SDS011;24934;52.752;6.964;2023-02-13T02:03:58;30.53;;;20.57;;
39218;SDS011;24934;52.752;6.964;2023-02-13T02:06:32;30.70;;;21.43;;
39218;SDS011;24934;52.752;6.964;2023-02-13T02:09:01;29.33;;;20.77;;
39218;SDS011;24934;52.752;6.964;2023-02-13T02:11:52;30.80;;;21.60;;
39218;SDS011;24934;52.752;6.964;2023-02-13T02:14:29;31.03;;;21.63;;
39218;SDS011;24934;52.752;6.964;2023-02-13T02:16:55;30.67;;;20.87;;
39218;SDS011;24934;52.752;6.964;2023-02-13T02:25:03;27.20;;;19.70;;
39218;SDS011;24934;52.752;6.964;2023-02-13T02:27:50;28.07;;;19.90;;
39218;SDS011;24934;52.752;6.964;2023-02-13T02:30:46;30.70;;;20.60;;
39218;SDS011;24934;52.752;6.964;2023-02-13T02:33:40;30.17;;;20.43;;
39218;SDS011;24934;52.752;6.964;2023-02-13T02:36:36;29.77;;;20.60;;
39218;SDS011;24934;52.752;6.964;2023-02-13T02:47:13;32.53;;;21.17;;
39218;SDS011;24934;52.752;6.964;2023-02-13T02:50:18;36.03;;;21.17;;
39218;SDS011;24934;52.752;6.964;2023-02-13T02:55:21;33.53;;;22.30;;
39218;SDS011;24934;52.752;6.964;2023-02-13T02:58:18;30.20;;;21.27;;
39218;SDS011;24934;52.752;6.964;2023-02-13T03:01:07;32.07;;;21.33;;
39218;SDS011;24934;52.752;6.964;2023-02-13T03:03:55;33.53;;;21.23;;
39218;SDS011;24934;52.752;6.964;2023-02-13T03:06:48;33.53;;;22.53;;
39218;SDS011;24934;52.752;6.964;2023-02-13T03:09:22;33.73;;;22.30;;
39218;SDS011;24934;52.752;6.964;2023-02-13T03:12:16;34.27;;;22.40;;
39218;SDS011;24934;52.752;6.964;2023-02-13T03:15:05;33.70;;;22.53;;
39218;SDS011;24934;52.752;6.964;2023-02-13T03:17:31;33.60;;;22.70;;
39218;SDS011;24934;52.752;6.964;2023-02-13T03:20:22;34.60;;;23.03;;
39218;SDS011;24934;52.752;6.964;2023-02-13T03:31:34;33.00;;;22.17;;
39218;SDS011;24934;52.752;6.964;2023-02-13T03:34:18;32.57;;;22.50;;
39218;SDS011;24934;52.752;6.964;2023-02-13T03:36:49;31.83;;;21.50;;
39218;SDS011;24934;52.752;6.964;2023-02-13T03:42:41;30.03;;;21.30;;
39218;SDS011;24934;52.752;6.964;2023-02-13T03:45:23;31.80;;;21.27;;
39218;SDS011;24934;52.752;6.964;2023-02-13T03:48:13;31.27;;;21.73;;
39218;SDS011;24934;52.752;6.964;2023-02-13T03:51:00;33.97;;;21.03;;
39218;SDS011;24934;52.752;6.964;2023-02-13T03:53:28;31.03;;;21.20;;
39218;SDS011;24934;52.752;6.964;2023-02-13T03:55:57;34.07;;;22.10;;
39218;SDS011;24934;52.752;6.964;2023-02-13T03:58:45;34.00;;;22.33;;
39218;SDS011;24934;52.752;6.964;2023-02-13T04:01:33;34.90;;;22.07;;
39218;SDS011;24934;52.752;6.964;2023-02-13T04:07:04;35.40;;;23.07;;
39218;SDS011;24934;52.752;6.964;2023-02-13T04:09:36;33.50;;;23.17;;
39218;SDS011;24934;52.752;6.964;2023-02-13T04:15:03;34.50;;;22.97;;
39218;SDS011;24934;52.752;6.964;2023-02-13T04:17:38;36.20;;;22.60;;
39218;SDS011;24934;52.752;6.964;2023-02-13T04:20:09;31.90;;;22.00;;
39218;SDS011;24934;52.752;6.964;2023-02-13T04:22:40;34.90;;;22.53;;
39218;SDS011;24934;52.752;6.964;2023-02-13T04:25:10;35.63;;;23.03;;
39218;SDS011;24934;52.752;6.964;2023-02-13T04:27:38;32.97;;;23.27;;
39218;SDS011;24934;52.752;6.964;2023-02-13T04:30:04;35.57;;;22.03;;
39218;SDS011;24934;52.752;6.964;2023-02-13T04:32:30;35.13;;;23.20;;
39218;SDS011;24934;52.752;6.964;2023-02-13T04:34:56;33.40;;;23.73;;
39218;SDS011;24934;52.752;6.964;2023-02-13T04:37:22;37.00;;;24.33;;
39218;SDS011;24934;52.752;6.964;2023-02-13T04:39:48;32.07;;;22.70;;
39218;SDS011;24934;52.752;6.964;2023-02-13T04:42:14;31.83;;;21.20;;
39218;SDS011;24934;52.752;6.964;2023-02-13T04:44:39;36.93;;;22.80;;
39218;SDS011;24934;52.752;6.964;2023-02-13T04:47:05;35.57;;;22.30;;
39218;SDS011;24934;52.752;6.964;2023-02-13T04:49:30;37.33;;;23.20;;
39218;SDS011;24934;52.752;6.964;2023-02-13T04:51:56;30.17;;;21.43;;
39218;SDS011;24934;52.752;6.964;2023-02-13T04:54:22;33.70;;;22.10;;
39218;SDS011;24934;52.752;6.964;2023-02-13T04:56:47;35.87;;;22.47;;
39218;SDS011;24934;52.752;6.964;2023-02-13T04:59:13;30.97;;;21.50;;
39218;SDS011;24934;52.752;6.964;2023-02-13T05:01:39;33.57;;;21.90;;
39218;SDS011;24934;52.752;6.964;2023-02-13T05:04:04;32.93;;;22.93;;
39218;SDS011;24934;52.752;6.964;2023-02-13T05:06:30;35.23;;;22.97;;
39218;SDS011;24934;52.752;6.964;2023-02-13T05:08:56;36.87;;;24.67;;
39218;SDS011;24934;52.752;6.964;2023-02-13T05:11:21;36.57;;;23.50;;
39218;SDS011;24934;52.752;6.964;2023-02-13T05:13:47;33.77;;;23.77;;
39218;SDS011;24934;52.752;6.964;2023-02-13T05:16:12;38.03;;;24.97;;
39218;SDS011;24934;52.752;6.964;2023-02-13T05:18:38;35.60;;;24.37;;
39218;SDS011;24934;52.752;6.964;2023-02-13T05:21:04;36.53;;;24.43;;
39218;SDS011;24934;52.752;6.964;2023-02-13T05:23:48;40.67;;;25.20;;
39218;SDS011;24934;52.752;6.964;2023-02-13T05:26:14;38.47;;;24.13;;
39218;SDS011;24934;52.752;6.964;2023-02-13T05:28:39;35.90;;;24.43;;
39218;SDS011;24934;52.752;6.964;2023-02-13T05:31:24;33.57;;;23.70;;
39218;SDS011;24934;52.752;6.964;2023-02-13T05:33:49;39.87;;;24.40;;
39218;SDS011;24934;52.752;6.964;2023-02-13T05:36:15;39.23;;;24.90;;
39218;SDS011;24934;52.752;6.964;2023-02-13T05:38:40;40.97;;;24.97;;
39218;SDS011;24934;52.752;6.964;2023-02-13T05:41:06;42.60;;;24.30;;
39218;SDS011;24934;52.752;6.964;2023-02-13T05:43:31;36.37;;;23.93;;
39218;SDS011;24934;52.752;6.964;2023-02-13T05:46:03;38.43;;;25.17;;
39218;SDS011;24934;52.752;6.964;2023-02-13T05:48:30;37.97;;;23.67;;
39218;SDS011;24934;52.752;6.964;2023-02-13T05:50:56;40.73;;;25.30;;
39218;SDS011;24934;52.752;6.964;2023-02-13T05:53:22;38.93;;;24.10;;
39218;SDS011;24934;52.752;6.964;2023-02-13T05:55:48;39.73;;;24.93;;
39218;SDS011;24934;52.752;6.964;2023-02-13T05:58:16;37.07;;;24.30;;
39218;SDS011;24934;52.752;6.964;2023-02-13T06:00:45;39.40;;;24.67;;
39218;SDS011;24934;52.752;6.964;2023-02-13T06:03:12;38.23;;;24.40;;
39218;SDS011;24934;52.752;6.964;2023-02-13T06:05:38;40.37;;;24.43;;
39218;SDS011;24934;52.752;6.964;2023-02-13T06:08:03;38.10;;;25.23;;
39218;SDS011;24934;52.752;6.964;2023-02-13T06:10:29;38.00;;;24.57;;
39218;SDS011;24934;52.752;6.964;2023-02-13T06:12:55;43.10;;;25.13;;
39218;SDS011;24934;52.752;6.964;2023-02-13T06:15:23;38.27;;;23.73;;
39218;SDS011;24934;52.752;6.964;2023-02-13T06:17:49;36.07;;;23.93;;
39218;SDS011;24934;52.752;6.964;2023-02-13T06:20:14;38.67;;;23.87;;
39218;SDS011;24934;52.752;6.964;2023-02-13T06:22:40;36.27;;;24.33;;
39218;SDS011;24934;52.752;6.964;2023-02-13T06:25:06;34.87;;;23.13;;
39218;SDS011;24934;52.752;6.964;2023-02-13T06:27:31;42.90;;;24.23;;
39218;SDS011;24934;52.752;6.964;2023-02-13T06:29:57;34.80;;;23.80;;
39218;SDS011;24934;52.752;6.964;2023-02-13T06:32:22;34.43;;;23.20;;
39218;SDS011;24934;52.752;6.964;2023-02-13T06:34:48;36.40;;;24.23;;
39218;SDS011;24934;52.752;6.964;2023-02-13T06:37:14;36.33;;;23.50;;
39218;SDS011;24934;52.752;6.964;2023-02-13T06:39:39;37.63;;;24.20;;
39218;SDS011;24934;52.752;6.964;2023-02-13T06:42:05;40.57;;;25.43;;
39218;SDS011;24934;52.752;6.964;2023-02-13T06:44:30;37.43;;;23.93;;
39218;SDS011;24934;52.752;6.964;2023-02-13T06:46:58;35.20;;;24.13;;
39218;SDS011;24934;52.752;6.964;2023-02-13T06:49:24;38.33;;;24.67;;
39218;SDS011;24934;52.752;6.964;2023-02-13T06:51:50;35.83;;;23.40;;
39218;SDS011;24934;52.752;6.964;2023-02-13T06:54:15;36.37;;;24.47;;
39218;SDS011;24934;52.752;6.964;2023-02-13T06:56:41;36.20;;;24.10;;
39218;SDS011;24934;52.752;6.964;2023-02-13T06:59:07;40.77;;;24.10;;
39218;SDS011;24934;52.752;6.964;2023-02-13T07:01:32;34.77;;;24.00;;
39218;SDS011;24934;52.752;6.964;2023-02-13T07:03:58;36.17;;;23.73;;
39218;SDS011;24934;52.752;6.964;2023-02-13T07:06:23;39.20;;;24.50;;
39218;SDS011;24934;52.752;6.964;2023-02-13T07:08:49;35.77;;;24.37;;
39218;SDS011;24934;52.752;6.964;2023-02-13T07:11:19;40.03;;;24.27;;
39218;SDS011;24934;52.752;6.964;2023-02-13T07:13:46;39.53;;;25.80;;
39218;SDS011;24934;52.752;6.964;2023-02-13T07:16:12;34.90;;;24.20;;
39218;SDS011;24934;52.752;6.964;2023-02-13T07:18:38;39.53;;;25.33;;
39218;SDS011;24934;52.752;6.964;2023-02-13T07:21:04;39.13;;;24.63;;
39218;SDS011;24934;52.752;6.964;2023-02-13T07:23:30;37.93;;;24.03;;
39218;SDS011;24934;52.752;6.964;2023-02-13T07:25:59;44.03;;;26.13;;
39218;SDS011;24934;52.752;6.964;2023-02-13T07:28:29;40.40;;;25.17;;
39218;SDS011;24934;52.752;6.964;2023-02-13T07:30:54;40.33;;;25.13;;
39218;SDS011;24934;52.752;6.964;2023-02-13T07:33:20;37.90;;;24.37;;
39218;SDS011;24934;52.752;6.964;2023-02-13T07:35:47;39.80;;;24.87;;
39218;SDS011;24934;52.752;6.964;2023-02-13T07:38:14;37.73;;;24.97;;
39218;SDS011;24934;52.752;6.964;2023-02-13T07:40:40;43.53;;;25.40;;
39218;SDS011;24934;52.752;6.964;2023-02-13T07:43:06;37.90;;;24.83;;
39218;SDS011;24934;52.752;6.964;2023-02-13T07:45:32;39.17;;;25.33;;
39218;SDS011;24934;52.752;6.964;2023-02-13T07:47:57;39.90;;;25.57;;
39218;SDS011;24934;52.752;6.964;2023-02-13T07:50:24;40.50;;;24.43;;
39218;SDS011;24934;52.752;6.964;2023-02-13T07:55:22;40.10;;;24.67;;
39218;SDS011;24934;52.752;6.964;2023-02-13T07:57:48;41.57;;;26.23;;
39218;SDS011;24934;52.752;6.964;2023-02-13T08:00:15;42.17;;;24.57;;
39218;SDS011;24934;52.752;6.964;2023-02-13T08:02:41;41.37;;;24.93;;
39218;SDS011;24934;52.752;6.964;2023-02-13T08:05:07;38.57;;;25.10;;
39218;SDS011;24934;52.752;6.964;2023-02-13T08:07:33;40.77;;;23.80;;
39218;SDS011;24934;52.752;6.964;2023-02-13T08:09:59;38.50;;;24.53;;
39218;SDS011;24934;52.752;6.964;2023-02-13T08:12:43;35.47;;;24.00;;
39218;SDS011;24934;52.752;6.964;2023-02-13T08:15:12;38.57;;;24.83;;
39218;SDS011;24934;52.752;6.964;2023-02-13T08:17:39;39.20;;;25.27;;
39218;SDS011;24934;52.752;6.964;2023-02-13T08:20:05;40.23;;;25.40;;
39218;SDS011;24934;52.752;6.964;2023-02-13T08:22:35;38.67;;;26.27;;
39218;SDS011;24934;52.752;6.964;2023-02-13T08:25:04;36.33;;;24.37;;
39218;SDS011;24934;52.752;6.964;2023-02-13T08:27:31;36.07;;;23.73;;
39218;SDS011;24934;52.752;6.964;2023-02-13T08:29:56;41.77;;;25.37;;
39218;SDS011;24934;52.752;6.964;2023-02-13T08:32:23;40.83;;;25.03;;
39218;SDS011;24934;52.752;6.964;2023-02-13T08:34:49;36.63;;;24.13;;
39218;SDS011;24934;52.752;6.964;2023-02-13T08:37:15;39.43;;;25.60;;
39218;SDS011;24934;52.752;6.964;2023-02-13T08:39:41;41.87;;;26.20;;
39218;SDS011;24934;52.752;6.964;2023-02-13T08:42:07;38.00;;;25.60;;
39218;SDS011;24934;52.752;6.964;2023-02-13T08:44:33;40.60;;;26.60;;
39218;SDS011;24934;52.752;6.964;2023-02-13T08:46:59;40.43;;;25.67;;
39218;SDS011;24934;52.752;6.964;2023-02-13T08:49:28;39.97;;;25.40;;
39218;SDS011;24934;52.752;6.964;2023-02-13T08:51:54;36.70;;;25.40;;
39218;SDS011;24934;52.752;6.964;2023-02-13T08:54:20;38.83;;;24.90;;
39218;SDS011;24934;52.752;6.964;2023-02-13T08:56:48;36.67;;;25.37;;
39218;SDS011;24934;52.752;6.964;2023-02-13T08:59:13;38.73;;;25.30;;
39218;SDS011;24934;52.752;6.964;2023-02-13T09:01:39;38.20;;;26.17;;
39218;SDS011;24934;52.752;6.964;2023-02-13T09:04:05;39.70;;;26.33;;
39218;SDS011;24934;52.752;6.964;2023-02-13T09:06:30;40.00;;;25.40;;
39218;SDS011;24934;52.752;6.964;2023-02-13T09:08:56;41.37;;;25.30;;
39218;SDS011;24934;52.752;6.964;2023-02-13T09:11:21;41.80;;;26.10;;
39218;SDS011;24934;52.752;6.964;2023-02-13T09:13:47;38.37;;;26.60;;
39218;SDS011;24934;52.752;6.964;2023-02-13T09:16:14;42.30;;;26.13;;
39218;SDS011;24934;52.752;6.964;2023-02-13T09:18:40;43.77;;;27.33;;
39218;SDS011;24934;52.752;6.964;2023-02-13T09:21:06;39.57;;;26.43;;
39218;SDS011;24934;52.752;6.964;2023-02-13T09:23:35;48.93;;;28.30;;
39218;SDS011;24934;52.752;6.964;2023-02-13T09:26:03;41.83;;;28.23;;
39218;SDS011;24934;52.752;6.964;2023-02-13T09:28:32;42.27;;;27.60;;
39218;SDS011;24934;52.752;6.964;2023-02-13T09:30:59;41.03;;;28.50;;
39218;SDS011;24934;52.752;6.964;2023-02-13T09:33:28;44.43;;;29.23;;
39218;SDS011;24934;52.752;6.964;2023-02-13T09:35:54;44.13;;;28.67;;
39218;SDS011;24934;52.752;6.964;2023-02-13T09:38:19;43.37;;;28.87;;
39218;SDS011;24934;52.752;6.964;2023-02-13T09:40:49;45.87;;;29.30;;
39218;SDS011;24934;52.752;6.964;2023-02-13T09:45:55;46.00;;;28.97;;
39218;SDS011;24934;52.752;6.964;2023-02-13T09:48:34;45.00;;;30.10;;
39218;SDS011;24934;52.752;6.964;2023-02-13T09:51:02;44.63;;;28.93;;
39218;SDS011;24934;52.752;6.964;2023-02-13T09:53:29;41.80;;;29.43;;
39218;SDS011;24934;52.752;6.964;2023-02-13T09:58:42;43.13;;;30.47;;
39218;SDS011;24934;52.752;6.964;2023-02-13T10:01:30;43.63;;;29.70;;
39218;SDS011;24934;52.752;6.964;2023-02-13T10:04:07;44.63;;;30.87;;
39218;SDS011;24934;52.752;6.964;2023-02-13T10:06:59;41.90;;;29.80;;
39218;SDS011;24934;52.752;6.964;2023-02-13T10:09:38;45.93;;;30.80;;
39218;SDS011;24934;52.752;6.964;2023-02-13T10:12:14;52.07;;;34.33;;
39218;SDS011;24934;52.752;6.964;2023-02-13T10:18:08;46.40;;;31.73;;
39218;SDS011;24934;52.752;6.964;2023-02-13T10:20:47;46.47;;;31.97;;
39218;SDS011;24934;52.752;6.964;2023-02-13T10:23:23;48.10;;;31.73;;
39218;SDS011;24934;52.752;6.964;2023-02-13T10:25:58;47.97;;;32.10;;
39218;SDS011;24934;52.752;6.964;2023-02-13T10:28:33;44.90;;;30.43;;
39218;SDS011;24934;52.752;6.964;2023-02-13T10:31:16;43.93;;;31.17;;
39218;SDS011;24934;52.752;6.964;2023-02-13T10:33:50;46.27;;;32.23;;
39218;SDS011;24934;52.752;6.964;2023-02-13T10:39:00;47.77;;;31.40;;
39218;SDS011;24934;52.752;6.964;2023-02-13T10:49:57;43.47;;;32.03;;
39218;SDS011;24934;52.752;6.964;2023-02-13T10:55:28;47.40;;;32.37;;
39218;SDS011;24934;52.752;6.964;2023-02-13T11:03:23;43.73;;;32.60;;
39218;SDS011;24934;52.752;6.964;2023-02-13T11:05:51;41.90;;;32.03;;
39218;SDS011;24934;52.752;6.964;2023-02-13T11:08:26;44.00;;;31.90;;
39218;SDS011;24934;52.752;6.964;2023-02-13T11:11:02;55.17;;;35.80;;
39218;SDS011;24934;52.752;6.964;2023-02-13T11:13:29;51.07;;;35.93;;
39218;SDS011;24934;52.752;6.964;2023-02-13T11:18:29;39.63;;;31.10;;
39218;SDS011;24934;52.752;6.964;2023-02-13T11:23:48;42.67;;;31.73;;
39218;SDS011;24934;52.752;6.964;2023-02-13T11:26:20;41.40;;;31.73;;
39218;SDS011;24934;52.752;6.964;2023-02-13T11:29:03;43.67;;;32.53;;
39218;SDS011;24934;52.752;6.964;2023-02-13T11:31:40;45.13;;;34.10;;
39218;SDS011;24934;52.752;6.964;2023-02-13T11:36:50;42.60;;;33.47;;
39218;SDS011;24934;52.752;6.964;2023-02-13T11:39:18;42.73;;;33.10;;
39218;SDS011;24934;52.752;6.964;2023-02-13T11:41:47;39.10;;;32.57;;
39218;SDS011;24934;52.752;6.964;2023-02-13T11:46:55;36.60;;;31.27;;
39218;SDS011;24934;52.752;6.964;2023-02-13T11:49:24;40.77;;;32.73;;
39218;SDS011;24934;52.752;6.964;2023-02-13T11:51:53;37.97;;;31.80;;
39218;SDS011;24934;52.752;6.964;2023-02-13T11:54:28;37.13;;;31.47;;
39218;SDS011;24934;52.752;6.964;2023-02-13T11:59:51;33.53;;;28.07;;
39218;SDS011;24934;52.752;6.964;2023-02-13T12:04:44;28.73;;;25.73;;
39218;SDS011;24934;52.752;6.964;2023-02-13T12:09:38;28.00;;;24.97;;
39218;SDS011;24934;52.752;6.964;2023-02-13T12:12:04;28.73;;;25.73;;
39218;SDS011;24934;52.752;6.964;2023-02-13T12:14:38;34.97;;;29.33;;
39218;SDS011;24934;52.752;6.964;2023-02-13T12:17:07;32.83;;;28.73;;
39218;SDS011;24934;52.752;6.964;2023-02-13T12:19:47;32.83;;;28.17;;
39218;SDS011;24934;52.752;6.964;2023-02-13T12:33:16;33.53;;;29.00;;
39218;SDS011;24934;52.752;6.964;2023-02-13T12:35:54;30.90;;;27.60;;
39218;SDS011;24934;52.752;6.964;2023-02-13T12:38:44;31.63;;;28.23;;
39218;SDS011;24934;52.752;6.964;2023-02-13T12:49:26;29.95;;;26.85;;
39218;SDS011;24934;52.752;6.964;2023-02-13T13:03:14;30.97;;;27.70;;
39218;SDS011;24934;52.752;6.964;2023-02-13T13:14:25;33.63;;;30.00;;
39218;SDS011;24934;52.752;6.964;2023-02-13T13:19:24;33.43;;;29.73;;
39218;SDS011;24934;52.752;6.964;2023-02-13T13:27:02;34.22;;;30.52;;
39218;SDS011;24934;52.752;6.964;2023-02-13T13:29:31;40.60;;;34.30;;
39218;SDS011;24934;52.752;6.964;2023-02-13T13:32:07;35.97;;;31.40;;
39218;SDS011;24934;52.752;6.964;2023-02-13T13:34:41;37.77;;;33.70;;
39218;SDS011;24934;52.752;6.964;2023-02-13T13:39:57;43.57;;;34.63;;
39218;SDS011;24934;52.752;6.964;2023-02-13T13:51:21;37.73;;;32.60;;
39218;SDS011;24934;52.752;6.964;2023-02-13T13:54:31;39.40;;;33.00;;
39218;SDS011;24934;52.752;6.964;2023-02-13T14:07:25;33.03;;;29.50;;
39218;SDS011;24934;52.752;6.964;2023-02-13T14:09:59;33.73;;;30.03;;
39218;SDS011;24934;52.752;6.964;2023-02-13T14:12:35;34.37;;;30.57;;
39218;SDS011;24934;52.752;6.964;2023-02-13T14:15:01;31.83;;;27.97;;
39218;SDS011;24934;52.752;6.964;2023-02-13T14:23:07;34.60;;;28.80;;
39218;SDS011;24934;52.752;6.964;2023-02-13T14:26:16;32.10;;;28.53;;
39218;SDS011;24934;52.752;6.964;2023-02-13T14:34:15;32.70;;;28.90;;
39218;SDS011;24934;52.752;6.964;2023-02-13T14:36:45;31.17;;;27.30;;
39218;SDS011;24934;52.752;6.964;2023-02-13T14:42:00;34.63;;;29.60;;
39218;SDS011;24934;52.752;6.964;2023-02-13T14:47:13;33.63;;;30.03;;
39218;SDS011;24934;52.752;6.964;2023-02-13T14:49:45;35.93;;;30.33;;
39218;SDS011;24934;52.752;6.964;2023-02-13T14:52:14;33.70;;;30.07;;
39218;SDS011;24934;52.752;6.964;2023-02-13T14:54:50;35.10;;;31.30;;
39218;SDS011;24934;52.752;6.964;2023-02-13T14:57:26;33.93;;;30.07;;
39218;SDS011;24934;52.752;6.964;2023-02-13T14:59:58;34.73;;;30.10;;
39218;SDS011;24934;52.752;6.964;2023-02-13T15:02:34;33.33;;;29.47;;
39218;SDS011;24934;52.752;6.964;2023-02-13T15:05:15;32.20;;;28.83;;
39218;SDS011;24934;52.752;6.964;2023-02-13T15:13:54;37.60;;;32.90;;
39218;SDS011;24934;52.752;6.964;2023-02-13T15:18:29;39.17;;;33.00;;
39218;SDS011;24934;52.752;6.964;2023-02-13T15:20:59;37.60;;;31.57;;
39218;SDS011;24934;52.752;6.964;2023-02-13T15:23:30;37.67;;;32.03;;
39218;SDS011;24934;52.752;6.964;2023-02-13T15:26:06;39.53;;;33.63;;
39218;SDS011;24934;52.752;6.964;2023-02-13T15:28:33;39.97;;;33.07;;
39218;SDS011;24934;52.752;6.964;2023-02-13T15:33:26;46.93;;;35.30;;
39218;SDS011;24934;52.752;6.964;2023-02-13T15:35:54;46.00;;;35.03;;
39218;SDS011;24934;52.752;6.964;2023-02-13T15:38:30;42.33;;;34.20;;
39218;SDS011;24934;52.752;6.964;2023-02-13T15:41:01;43.80;;;35.30;;
39218;SDS011;24934;52.752;6.964;2023-02-13T15:45:59;49.07;;;39.37;;
39218;SDS011;24934;52.752;6.964;2023-02-13T15:48:29;49.50;;;39.67;;
39218;SDS011;24934;52.752;6.964;2023-02-13T15:50:57;41.13;;;34.40;;
39218;SDS011;24934;52.752;6.964;2023-02-13T15:53:23;39.50;;;33.00;;
39218;SDS011;24934;52.752;6.964;2023-02-13T15:55:56;40.50;;;34.07;;
39218;SDS011;24934;52.752;6.964;2023-02-13T15:58:28;44.37;;;33.83;;
39218;SDS011;24934;52.752;6.964;2023-02-13T16:01:05;45.13;;;35.80;;
39218;SDS011;24934;52.752;6.964;2023-02-13T16:03:32;55.20;;;42.67;;
39218;SDS011;24934;52.752;6.964;2023-02-13T16:05:59;53.73;;;41.70;;
39218;SDS011;24934;52.752;6.964;2023-02-13T16:08:26;51.87;;;40.03;;
39218;SDS011;24934;52.752;6.964;2023-02-13T16:13:40;56.33;;;41.70;;
39218;SDS011;24934;52.752;6.964;2023-02-13T16:16:15;51.10;;;39.70;;
39218;SDS011;24934;52.752;6.964;2023-02-13T16:18:47;52.37;;;38.90;;
39218;SDS011;24934;52.752;6.964;2023-02-13T16:21:14;51.93;;;38.97;;
39218;SDS011;24934;52.752;6.964;2023-02-13T16:23:43;53.87;;;38.93;;
39218;SDS011;24934;52.752;6.964;2023-02-13T16:26:11;51.63;;;39.53;;
39218;SDS011;24934;52.752;6.964;2023-02-13T16:28:44;55.23;;;41.03;;
39218;SDS011;24934;52.752;6.964;2023-02-13T16:31:14;52.60;;;38.20;;
39218;SDS011;24934;52.752;6.964;2023-02-13T16:33:42;52.90;;;40.07;;
39218;SDS011;24934;52.752;6.964;2023-02-13T16:38:37;51.40;;;38.90;;
39218;SDS011;24934;52.752;6.964;2023-02-13T16:51:30;56.93;;;37.73;;
39218;SDS011;24934;52.752;6.964;2023-02-13T16:54:04;54.83;;;38.00;;
39218;SDS011;24934;52.752;6.964;2023-02-13T17:02:29;49.30;;;36.97;;
39218;SDS011;24934;52.752;6.964;2023-02-13T17:07:40;53.60;;;39.40;;
39218;SDS011;24934;52.752;6.964;2023-02-13T17:10:21;55.87;;;40.17;;
39218;SDS011;24934;52.752;6.964;2023-02-13T17:12:47;57.23;;;40.53;;
39218;SDS011;24934;52.752;6.964;2023-02-13T17:15:16;56.30;;;38.63;;
39218;SDS011;24934;52.752;6.964;2023-02-13T17:17:43;58.23;;;40.63;;
39218;SDS011;24934;52.752;6.964;2023-02-13T17:20:14;59.97;;;40.73;;
39218;SDS011;24934;52.752;6.964;2023-02-13T17:22:45;58.67;;;40.43;;
39218;SDS011;24934;52.752;6.964;2023-02-13T17:25:24;60.40;;;41.00;;
39218;SDS011;24934;52.752;6.964;2023-02-13T17:27:53;67.97;;;41.87;;
39218;SDS011;24934;52.752;6.964;2023-02-13T17:30:22;60.10;;;40.47;;
39218;SDS011;24934;52.752;6.964;2023-02-13T17:32:51;62.80;;;40.63;;
39218;SDS011;24934;52.752;6.964;2023-02-13T17:35:21;58.77;;;39.63;;
39218;SDS011;24934;52.752;6.964;2023-02-13T17:37:47;59.43;;;39.80;;
39218;SDS011;24934;52.752;6.964;2023-02-13T17:40:16;63.17;;;41.30;;
39218;SDS011;24934;52.752;6.964;2023-02-13T17:42:44;61.40;;;39.83;;
39218;SDS011;24934;52.752;6.964;2023-02-13T17:45:15;62.27;;;40.63;;
39218;SDS011;24934;52.752;6.964;2023-02-13T17:47:42;61.30;;;41.70;;
39218;SDS011;24934;52.752;6.964;2023-02-13T17:50:08;70.40;;;43.20;;
39218;SDS011;24934;52.752;6.964;2023-02-13T17:52:34;65.63;;;41.70;;
39218;SDS011;24934;52.752;6.964;2023-02-13T17:55:01;61.53;;;39.80;;
39218;SDS011;24934;52.752;6.964;2023-02-13T17:57:27;62.50;;;41.77;;
39218;SDS011;24934;52.752;6.964;2023-02-13T17:59:52;66.03;;;41.40;;
39218;SDS011;24934;52.752;6.964;2023-02-13T18:02:20;62.60;;;40.50;;
39218;SDS011;24934;52.752;6.964;2023-02-13T18:04:47;60.53;;;40.10;;
39218;SDS011;24934;52.752;6.964;2023-02-13T18:07:15;64.10;;;41.17;;